Wiarton, Wiarton Airport (CYVV)

NameWiarton Airport
CityWiarton
CountryCanada
ICAOCYVV
IATAYVV
Altitude68 m
CoordinatesGoogle Map
Live Air TrafficLiveATC.net
METARCYVV 191600Z 19014KT 15SM FEW120 OVC250 22/12 A3020 RMK AC1CI7 SLP228 DENSITY ALT 1500FT
2019-09-19 16:00:00 Wind: South (190°) 7.2 m/s - Visibility: 24140.1 m - Temperature: 22 °C - Dew point: 12 °C - Humidity: 53.2% - Pressure: 1022.69 hPa
Statistics

The table below shows the detailed information of all flights to/from Wiarton, Wiarton Airport (CYVV).